Badan Meteorologi, Klimatologi, dan Geofisika

CUACA TERKINI BANDARA KUALANAMU

Selasa, 20 April 2021 15:04 UTC

Cuaca : Halimun

Angin : (dari) Barat Daya, 3.7 km/jam

Jarak Pandang : 4.0 km

Suhu : 26 °C

Waktu Pengamatan : 22:00 WIB

Selengkapnya>>>

DATA METEOROLOGI KUALANAMU

Data Metar Terbaru

WIMM 201500Z 23002KT 4000 BR SCT017 26/26 Q1010 NOSIG=

WIMM 201430Z 21003KT 5000 HZ SCT017 26/26 Q1010 NOSIG=

WIMM 201400Z 25002KT 7000 FEW017CB SCT018 26/26 Q1009 NOSIG RMK CB TO S=

WIMM 201330Z 00000KT 9000 FEW017CB SCT018 27/26 Q1009 NOSIG RMK CB TO S=

WIMM 201300Z 00000KT 9000 FEW017CB SCT018 27/26 Q1009 NOSIG RMK CB TO S=

WIMM 201230Z 00000KT 9000 FEW017CB SCT018 27/26 Q1008 NOSIG RMK CB TO S=

TAF WIMM 201100Z 2012/2112 02005KT 9999 SCT017 BECMG 2013/2015 24004KT 3000 BR BECMG 2101/2103 VRB03KT 9999 NSW =

Selengkapnya>>>

Data TAF Terbaru

TAF WIMM 201100Z 2012/2112 02005KT 9999 SCT017 BECMG 2013/2015 24004KT 3000 BR BECMG 2101/2103 VRB03KT 9999 NSW =

Selengkapnya>>>

CITRA SATELIT

Enhanced
Citra Satelit
Cloud Type
Citra Satelit IR
Hotspot
Citra Satelit
Sebaran Asap
Citra Satelit